Putnam, Texas
Current Conditions -  °F | °C
As of 1:52 PM on Thursday 29 Jan 2015 (Local Time) from KABI Reporting Station
Clear Clear  
Wind Chill: 63°   Ceiling: Unl
Heat Index: 63°   Visibility: 10mi
Dew Point: 36°   Wind: 17mph
Humidity: 37%   Direction: 10°N
Pressure: 30.34"   Gusts: 25mph
Location:  32.37°N, 99.19°W
Report Text: KABI 291952Z 01015G22KT 10SM CLR 17/02 A3034 RMK AO2 SLP261 T01720022
Loading
Personal Weather Stations






























Interactive Weather Map New forecast layout! Learn more

10-Day Weather Forecast

Advertisements
Track Severe Weather on mobile